createdAt,value
2019-02-23T00:01:00.271Z,2.76
2019-02-23T00:03:29.503Z,2.70
2019-02-23T00:05:58.761Z,2.80
2019-02-23T00:08:27.984Z,2.91
2019-02-23T00:10:57.232Z,2.91
2019-02-23T00:13:26.669Z,3.12
2019-02-23T00:15:55.920Z,2.99
2019-02-23T00:18:25.190Z,2.90
2019-02-23T00:20:54.484Z,2.78
2019-02-23T00:23:23.789Z,2.70
2019-02-23T00:25:53.072Z,2.84
2019-02-23T00:28:22.305Z,2.66
2019-02-23T00:30:51.555Z,2.56
2019-02-23T00:33:20.806Z,2.64
2019-02-23T00:35:50.031Z,2.51
2019-02-23T00:38:19.285Z,2.43
2019-02-23T00:40:48.504Z,2.64
2019-02-23T00:43:17.742Z,2.65
2019-02-23T00:45:46.946Z,2.35
2019-02-23T00:48:16.187Z,2.51
2019-02-23T00:50:45.453Z,2.40
2019-02-23T00:53:14.763Z,2.34
2019-02-23T00:55:43.990Z,2.41
2019-02-23T00:58:13.223Z,2.25
2019-02-23T01:00:42.576Z,2.39
2019-02-23T01:03:11.860Z,2.17
2019-02-23T01:05:41.076Z,2.32
2019-02-23T01:08:10.333Z,2.27
2019-02-23T01:10:39.607Z,2.28
2019-02-23T01:13:08.846Z,2.28
2019-02-23T01:15:38.070Z,2.27
2019-02-23T01:18:07.316Z,2.31
2019-02-23T01:20:36.564Z,2.11
2019-02-23T01:23:06.159Z,2.10
2019-02-23T01:25:35.380Z,2.22
2019-02-23T01:28:04.752Z,2.06
2019-02-23T01:30:34.034Z,2.07
2019-02-23T01:33:03.368Z,2.01
2019-02-23T01:35:32.576Z,2.06
2019-02-23T01:38:01.850Z,2.11
2019-02-23T01:40:31.082Z,1.85
2019-02-23T01:43:00.340Z,2.01
2019-02-23T01:45:29.613Z,2.04
2019-02-23T01:47:58.906Z,2.08
2019-02-23T01:50:34.008Z,2.07
2019-02-23T01:53:03.257Z,2.10
2019-02-23T01:55:32.536Z,2.00
2019-02-23T01:58:01.818Z,2.06
2019-02-23T02:00:31.145Z,1.85
2019-02-23T02:03:00.368Z,1.90
2019-02-23T02:05:29.585Z,1.73
2019-02-23T02:07:58.906Z,1.92
2019-02-23T02:10:28.179Z,1.88
2019-02-23T02:12:57.473Z,1.72
2019-02-23T02:15:26.745Z,1.62
2019-02-23T02:18:53.483Z,1.55
2019-02-23T02:21:22.719Z,1.53
2019-02-23T02:23:51.956Z,1.40
2019-02-23T02:26:21.198Z,1.51
2019-02-23T02:28:50.769Z,1.56
2019-02-23T02:31:25.818Z,1.44
2019-02-23T02:34:11.930Z,1.37
2019-02-23T02:36:41.172Z,1.39
2019-02-23T02:39:12.431Z,1.48
2019-02-23T02:45:22.256Z,1.60
2019-02-23T02:48:27.841Z,1.43
2019-02-23T02:50:57.076Z,1.52
2019-02-23T02:53:26.364Z,1.50
2019-02-23T02:55:55.600Z,1.45
2019-02-23T02:58:24.931Z,1.57
2019-02-23T03:00:54.179Z,1.54
2019-02-23T03:03:23.476Z,1.29
2019-02-23T03:05:52.703Z,1.31
2019-02-23T03:08:21.959Z,1.28
2019-02-23T03:10:51.172Z,1.39
2019-02-23T03:13:20.404Z,1.38
2019-02-23T03:15:50.187Z,1.40
2019-02-23T03:18:19.394Z,1.42
2019-02-23T03:20:48.684Z,1.47
2019-02-23T03:23:18.074Z,1.54
2019-02-23T03:25:47.403Z,1.59
2019-02-23T03:28:16.593Z,1.48
2019-02-23T03:30:45.885Z,1.35
2019-02-23T03:33:15.130Z,1.46
2019-02-23T03:35:44.353Z,1.35
2019-02-23T03:38:13.656Z,1.26
2019-02-23T03:40:42.986Z,1.28
2019-02-23T03:43:14.436Z,1.38
2019-02-23T03:45:43.881Z,1.45
2019-02-23T03:48:13.117Z,1.47
2019-02-23T03:50:49.153Z,1.62
2019-02-23T03:53:13.558Z,1.60
2019-02-23T03:55:42.844Z,1.45
2019-02-23T03:58:12.055Z,1.55
2019-02-23T04:00:41.628Z,1.61
2019-02-23T04:03:10.886Z,1.36
2019-02-23T04:05:40.155Z,1.29
2019-02-23T04:08:09.371Z,1.48
2019-02-23T04:10:38.678Z,1.43
2019-02-23T04:13:07.884Z,1.68
2019-02-23T04:15:37.351Z,1.52
2019-02-23T04:18:06.582Z,1.41
2019-02-23T04:20:35.819Z,1.37
2019-02-23T04:23:05.045Z,1.62
2019-02-23T04:25:34.365Z,1.63
2019-02-23T04:28:03.592Z,1.47
2019-02-23T04:30:32.798Z,1.15
2019-02-23T04:33:02.015Z,1.18
2019-02-23T04:35:31.263Z,1.13
2019-02-23T04:38:00.506Z,1.18
2019-02-23T04:40:29.777Z,1.11
2019-02-23T04:42:59.010Z,1.09
2019-02-23T04:45:28.250Z,1.18
2019-02-23T04:47:57.553Z,1.14
2019-02-23T04:50:26.830Z,1.15
2019-02-23T04:52:56.030Z,1.27
2019-02-23T04:55:25.250Z,1.37
2019-02-23T04:57:54.502Z,1.31
2019-02-23T05:00:23.750Z,1.31
2019-02-23T05:02:52.993Z,1.25
2019-02-23T05:05:22.277Z,1.23
2019-02-23T05:07:51.497Z,1.22
2019-02-23T05:10:20.775Z,1.15
2019-02-23T05:12:50.013Z,1.13
2019-02-23T05:15:19.258Z,1.10
2019-02-23T05:17:48.469Z,1.09
2019-02-23T05:20:17.704Z,1.08
2019-02-23T05:22:46.941Z,1.14
2019-02-23T05:25:16.175Z,1.17
2019-02-23T05:27:45.409Z,1.33
2019-02-23T05:30:14.710Z,1.04
2019-02-23T05:32:43.928Z,1.17
2019-02-23T05:35:13.198Z,1.00
2019-02-23T05:37:42.558Z,1.03
2019-02-23T05:40:11.943Z,0.81
2019-02-23T05:42:41.218Z,0.85
2019-02-23T05:45:10.499Z,1.06
2019-02-23T05:47:39.957Z,1.15
2019-02-23T05:50:09.698Z,1.04
2019-02-23T05:52:39.008Z,0.88
2019-02-23T05:55:08.233Z,0.83
2019-02-23T05:57:37.574Z,0.90
2019-02-23T06:00:10.899Z,0.92
2019-02-23T06:02:40.208Z,0.96
2019-02-23T06:05:09.430Z,0.87
2019-02-23T06:07:38.689Z,0.91
2019-02-23T06:10:09.959Z,0.92
2019-02-23T06:12:39.208Z,0.90
2019-02-23T06:15:11.315Z,0.98
2019-02-23T06:17:40.693Z,0.93
2019-02-23T06:20:11.166Z,0.96
2019-02-23T06:22:40.433Z,0.89
2019-02-23T06:25:10.018Z,0.87
2019-02-23T06:27:39.517Z,0.82
2019-02-23T06:30:10.512Z,0.90
2019-02-23T06:32:39.749Z,0.77
2019-02-23T06:35:09.308Z,0.58
2019-02-23T06:37:41.268Z,0.59
2019-02-23T06:40:10.542Z,0.70
2019-02-23T06:42:39.822Z,0.80
2019-02-23T06:45:09.127Z,0.80
2019-02-23T06:47:38.355Z,0.56
2019-02-23T06:50:08.667Z,0.63
2019-02-23T06:52:37.942Z,0.79
2019-02-23T06:55:07.234Z,0.78
2019-02-23T06:57:36.522Z,0.72
2019-02-23T07:00:06.394Z,0.66
2019-02-23T07:02:35.658Z,0.55
2019-02-23T07:05:04.993Z,0.58
2019-02-23T07:07:34.293Z,0.51
2019-02-23T07:10:03.758Z,0.45
2019-02-23T07:12:33.000Z,0.50
2019-02-23T07:15:02.424Z,0.53
2019-02-23T07:17:31.671Z,0.55
2019-02-23T07:20:00.939Z,0.66
2019-02-23T07:22:30.192Z,0.76
2019-02-23T07:24:59.461Z,0.93
2019-02-23T07:27:28.754Z,0.98
2019-02-23T07:29:57.986Z,0.93
2019-02-23T07:32:27.237Z,0.97
2019-02-23T07:34:56.466Z,1.02
2019-02-23T07:37:25.766Z,1.00
2019-02-23T07:39:55.015Z,1.05
2019-02-23T07:42:24.242Z,1.04
2019-02-23T07:44:54.380Z,0.99
2019-02-23T07:47:23.636Z,0.99
2019-02-23T07:49:52.884Z,1.01
2019-02-23T07:52:26.269Z,1.17
2019-02-23T07:54:53.131Z,1.15
2019-02-23T07:57:22.396Z,1.06
2019-02-23T07:59:51.634Z,1.30
2019-02-23T08:02:20.898Z,1.35
2019-02-23T08:04:50.123Z,1.36
2019-02-23T08:07:19.406Z,1.45
2019-02-23T08:09:48.648Z,1.39
2019-02-23T08:12:18.202Z,1.23
2019-02-23T08:14:47.660Z,1.33
2019-02-23T08:17:16.921Z,1.34
2019-02-23T08:19:46.144Z,1.35
2019-02-23T08:22:15.355Z,1.34
2019-02-23T08:24:44.631Z,1.40
2019-02-23T08:27:13.840Z,1.45
2019-02-23T08:29:43.116Z,1.47
2019-02-23T08:32:12.410Z,1.42
2019-02-23T08:34:41.687Z,1.50
2019-02-23T08:37:10.896Z,1.46
2019-02-23T08:39:40.168Z,1.58
2019-02-23T08:42:09.410Z,1.56
2019-02-23T08:44:38.638Z,1.69
2019-02-23T08:47:07.859Z,1.41
2019-02-23T08:49:37.104Z,1.53
2019-02-23T08:52:07.232Z,1.59
2019-02-23T08:54:36.498Z,1.74
2019-02-23T08:57:05.710Z,1.82
2019-02-23T08:59:34.946Z,1.75
2019-02-23T09:02:04.196Z,1.67
2019-02-23T09:04:33.571Z,1.58
2019-02-23T09:07:02.872Z,1.84
2019-02-23T09:09:32.199Z,1.78
2019-02-23T09:12:01.718Z,1.95
2019-02-23T09:14:31.115Z,1.94
2019-02-23T09:17:00.535Z,1.85
2019-02-23T09:19:29.823Z,1.96
2019-02-23T09:21:59.163Z,2.02
2019-02-23T09:24:28.672Z,2.00
2019-02-23T09:26:57.893Z,2.17
2019-02-23T09:29:27.157Z,2.32
2019-02-23T09:31:56.462Z,2.34
2019-02-23T09:34:25.762Z,2.23
2019-02-23T09:36:55.057Z,2.40
2019-02-23T09:39:24.417Z,2.37
2019-02-23T09:41:53.770Z,2.42
2019-02-23T09:44:23.161Z,2.65
2019-02-23T09:46:52.439Z,2.67
2019-02-23T09:49:21.724Z,2.59
2019-02-23T09:51:50.958Z,2.73
2019-02-23T09:54:20.237Z,2.77
2019-02-23T09:56:49.529Z,2.84
2019-02-23T09:59:18.815Z,3.01
2019-02-23T10:01:48.064Z,3.09
2019-02-23T10:04:17.371Z,3.06
2019-02-23T10:06:47.063Z,3.08
2019-02-23T10:09:16.969Z,3.22
2019-02-23T10:11:46.354Z,3.30
2019-02-23T10:17:21.696Z,3.56
2019-02-23T10:19:52.796Z,3.68
2019-02-23T10:22:22.237Z,3.64
2019-02-23T10:24:51.605Z,3.72
2019-02-23T10:27:20.901Z,3.81
2019-02-23T10:29:50.228Z,3.77
2019-02-23T10:32:19.477Z,3.79
2019-02-23T10:34:48.762Z,3.80
2019-02-23T10:37:17.988Z,3.82
2019-02-23T10:39:47.707Z,4.00
2019-02-23T10:42:16.909Z,4.20
2019-02-23T10:44:46.182Z,4.24
2019-02-23T10:47:15.432Z,4.30
2019-02-23T10:49:45.899Z,4.43
2019-02-23T10:52:15.254Z,4.45
2019-02-23T10:54:47.061Z,4.57
2019-02-23T10:57:15.622Z,4.64
2019-02-23T10:59:45.062Z,4.75
2019-02-23T11:02:14.449Z,4.87
2019-02-23T11:04:43.917Z,5.09
2019-02-23T11:07:13.188Z,5.48
2019-02-23T11:09:42.544Z,5.75
2019-02-23T11:12:11.798Z,5.75
2019-02-23T11:14:41.033Z,5.93
2019-02-23T11:17:10.270Z,6.26
2019-02-23T11:19:39.528Z,6.45
2019-02-23T11:22:08.759Z,6.84
2019-02-23T11:24:37.996Z,6.88
2019-02-23T11:27:07.409Z,6.78
2019-02-23T11:29:36.667Z,6.61
2019-02-23T11:32:05.975Z,6.93
2019-02-23T11:34:35.242Z,6.79
2019-02-23T11:37:04.883Z,6.07
2019-02-23T11:39:34.155Z,6.28
2019-02-23T11:42:03.434Z,5.77
2019-02-23T11:44:32.677Z,5.82
2019-02-23T11:47:01.927Z,5.74
2019-02-23T11:49:31.143Z,5.92
2019-02-23T11:52:00.470Z,6.04
2019-02-23T11:54:29.769Z,6.01
2019-02-23T11:56:59.040Z,6.02
2019-02-23T11:59:28.256Z,6.12
2019-02-23T12:01:57.553Z,6.05
2019-02-23T12:04:26.766Z,6.08
2019-02-23T12:06:56.599Z,5.98
2019-02-23T12:09:25.921Z,5.98
2019-02-23T12:11:55.720Z,6.05
2019-02-23T12:14:25.903Z,6.09
2019-02-23T12:16:55.314Z,6.12
2019-02-23T12:19:24.558Z,6.04
2019-02-23T12:21:53.855Z,6.08
2019-02-23T12:24:23.131Z,6.05
2019-02-23T12:26:52.389Z,6.05
2019-02-23T12:29:21.646Z,6.16
2019-02-23T12:31:50.928Z,6.22
2019-02-23T12:34:20.207Z,6.26
2019-02-23T12:36:49.445Z,6.32
2019-02-23T12:39:18.771Z,6.33
2019-02-23T12:41:48.054Z,6.38
2019-02-23T12:44:17.305Z,6.45
2019-02-23T12:46:46.569Z,6.49
2019-02-23T12:49:15.795Z,6.48
2019-02-23T12:51:45.351Z,6.53
2019-02-23T12:54:16.968Z,6.46
2019-02-23T12:56:46.406Z,6.50
2019-02-23T12:59:15.684Z,6.57
2019-02-23T13:01:45.061Z,6.59
2019-02-23T13:04:14.491Z,6.64
2019-02-23T13:06:43.797Z,6.76
2019-02-23T13:09:25.711Z,6.72
2019-02-23T13:12:05.036Z,6.69
2019-02-23T13:14:44.867Z,6.72
2019-02-23T13:17:50.015Z,6.71
2019-02-23T13:20:56.570Z,6.72
2019-02-23T13:23:53.991Z,6.78
2019-02-23T13:26:56.516Z,6.92
2019-02-23T13:30:06.843Z,6.87
2019-02-23T13:33:20.718Z,6.80
2019-02-23T13:36:01.281Z,6.89
2019-02-23T13:39:03.578Z,6.85
2019-02-23T13:42:19.636Z,6.92
2019-02-23T13:45:19.028Z,6.89
2019-02-23T13:48:29.585Z,6.83
2019-02-23T13:51:09.676Z,6.84
2019-02-23T13:54:12.264Z,6.82
2019-02-23T13:56:50.244Z,6.88
2019-02-23T13:59:39.763Z,6.86
2019-02-23T14:02:43.795Z,6.90
2019-02-23T14:05:36.077Z,7.01
2019-02-23T14:09:04.610Z,7.02
2019-02-23T14:11:58.535Z,6.98
2019-02-23T14:15:08.290Z,6.98
2019-02-23T14:18:03.190Z,6.94
2019-02-23T14:21:11.222Z,6.96
2019-02-23T14:24:20.624Z,6.93
2019-02-23T14:27:49.236Z,6.86
2019-02-23T14:31:01.817Z,6.90
2019-02-23T14:34:09.300Z,6.93
2019-02-23T14:37:38.115Z,7.04
2019-02-23T14:40:41.418Z,6.98
2019-02-23T14:44:07.025Z,7.03
2019-02-23T14:47:09.068Z,7.04
2019-02-23T14:50:16.491Z,7.07
2019-02-23T14:53:28.591Z,7.05
2019-02-23T14:56:36.163Z,7.04
2019-02-23T14:59:47.606Z,7.05
2019-02-23T15:03:10.662Z,7.08
2019-02-23T15:06:14.189Z,7.10
2019-02-23T15:09:21.603Z,7.08
2019-02-23T15:12:31.038Z,7.07
2019-02-23T15:15:23.001Z,7.09
2019-02-23T15:18:55.523Z,7.10
2019-02-23T15:22:13.006Z,7.12
2019-02-23T15:25:32.300Z,7.12
2019-02-23T15:28:38.918Z,7.20
2019-02-23T15:32:00.521Z,7.16
2019-02-23T15:35:12.051Z,7.14
2019-02-23T15:38:25.499Z,7.17
2019-02-23T15:41:28.145Z,7.17
2019-02-23T15:44:34.392Z,7.12
2019-02-23T15:47:52.459Z,7.10
2019-02-23T15:50:22.082Z,7.10
2019-02-23T15:52:51.472Z,7.11
2019-02-23T15:55:25.907Z,7.11
2019-02-23T15:57:52.074Z,7.10
2019-02-23T16:00:45.266Z,7.19
2019-02-23T16:03:14.531Z,7.15
2019-02-23T16:05:43.822Z,7.23
2019-02-23T16:08:13.077Z,7.17
2019-02-23T16:10:42.426Z,7.14
2019-02-23T16:13:11.767Z,7.09
2019-02-23T16:15:41.027Z,7.09
2019-02-23T16:18:10.612Z,7.06
2019-02-23T16:20:39.948Z,7.09
2019-02-23T16:23:09.264Z,7.11
2019-02-23T16:25:38.861Z,7.04
2019-02-23T16:28:08.073Z,7.04
2019-02-23T16:30:37.404Z,7.13
2019-02-23T16:33:07.282Z,7.16
2019-02-23T16:35:36.592Z,7.09
2019-02-23T16:38:05.948Z,7.06
2019-02-23T16:40:35.256Z,6.98
2019-02-23T16:43:05.178Z,6.96
2019-02-23T16:45:36.161Z,6.96
2019-02-23T16:48:05.741Z,6.92
2019-02-23T16:50:35.015Z,6.88
2019-02-23T16:53:04.293Z,6.92
2019-02-23T16:55:33.734Z,6.86
2019-02-23T16:58:02.967Z,6.88
2019-02-23T17:00:32.331Z,6.95
2019-02-23T17:03:01.727Z,6.97
2019-02-23T17:05:31.000Z,6.88
2019-02-23T17:08:00.262Z,6.89
2019-02-23T17:10:29.577Z,6.83
2019-02-23T17:12:58.899Z,6.80
2019-02-23T17:15:28.340Z,6.78
2019-02-23T17:17:59.887Z,6.70
2019-02-23T17:20:29.530Z,6.64
2019-02-23T17:23:01.917Z,6.67
2019-02-23T17:25:29.815Z,6.65
2019-02-23T17:27:59.083Z,6.63
2019-02-23T17:30:31.203Z,6.56
2019-02-23T17:33:01.022Z,6.58
2019-02-23T17:35:30.938Z,6.53
2019-02-23T17:38:00.290Z,6.62
2019-02-23T17:40:29.555Z,6.56
2019-02-23T17:42:58.873Z,6.59
2019-02-23T17:45:28.116Z,6.64
2019-02-23T17:47:57.484Z,6.59
2019-02-23T17:50:26.803Z,6.46
2019-02-23T17:52:56.031Z,6.50
2019-02-23T17:55:25.271Z,6.34
2019-02-23T17:57:54.590Z,6.36
2019-02-23T18:00:25.741Z,6.30
2019-02-23T18:02:55.047Z,6.28
2019-02-23T18:05:24.717Z,6.24
2019-02-23T18:07:54.413Z,6.17
2019-02-23T18:10:24.119Z,6.21
2019-02-23T18:12:53.961Z,6.16
2019-02-23T18:15:23.810Z,6.20
2019-02-23T18:17:53.350Z,6.29
2019-02-23T18:20:23.195Z,6.26
2019-02-23T18:22:52.694Z,6.07
2019-02-23T18:25:22.489Z,6.05
2019-02-23T18:27:52.050Z,5.97
2019-02-23T18:30:31.222Z,5.99
2019-02-23T18:33:01.001Z,6.07
2019-02-23T18:35:30.637Z,5.94
2019-02-23T18:37:59.988Z,5.83
2019-02-23T18:40:29.275Z,5.80
2019-02-23T18:42:58.574Z,5.90
2019-02-23T18:45:27.882Z,5.95
2019-02-23T18:47:57.243Z,5.95
2019-02-23T18:50:26.641Z,6.00
2019-02-23T18:52:56.137Z,5.91
2019-02-23T18:55:25.370Z,5.85
2019-02-23T18:57:54.791Z,5.97
2019-02-23T19:00:24.700Z,5.88
2019-02-23T19:02:54.060Z,5.91
2019-02-23T19:05:23.428Z,5.92
2019-02-23T19:07:52.711Z,5.89
2019-02-23T19:10:23.043Z,5.76
2019-02-23T19:12:52.347Z,5.85
2019-02-23T19:15:21.620Z,5.79
2019-02-23T19:17:50.885Z,5.86
2019-02-23T19:20:20.208Z,5.81
2019-02-23T19:22:49.468Z,5.64
2019-02-23T19:25:18.767Z,5.58
2019-02-23T19:27:49.464Z,5.48
2019-02-23T19:30:19.152Z,5.47
2019-02-23T19:32:48.478Z,5.50
2019-02-23T19:35:17.759Z,5.48
2019-02-23T19:37:47.081Z,5.54
2019-02-23T19:40:18.109Z,5.67
2019-02-23T19:42:47.404Z,5.68
2019-02-23T19:46:01.629Z,5.63
2019-02-23T19:48:30.945Z,5.54
2019-02-23T19:51:18.259Z,5.39
2019-02-23T19:53:47.672Z,5.42
2019-02-23T19:56:17.056Z,5.51
2019-02-23T19:58:46.350Z,5.47
2019-02-23T20:01:15.668Z,5.37
2019-02-23T20:03:44.928Z,5.40
2019-02-23T20:06:14.204Z,5.33
2019-02-23T20:08:43.522Z,5.29
2019-02-23T20:11:12.879Z,5.31
2019-02-23T20:13:42.149Z,5.32
2019-02-23T20:16:11.470Z,5.27
2019-02-23T20:18:41.027Z,5.40
2019-02-23T20:21:10.589Z,5.30
2019-02-23T20:23:39.915Z,5.29
2019-02-23T20:26:09.188Z,5.29
2019-02-23T20:28:38.869Z,5.30
2019-02-23T20:31:08.122Z,5.26
2019-02-23T20:33:37.377Z,5.28
2019-02-23T20:36:06.693Z,5.20
2019-02-23T20:38:36.598Z,5.23
2019-02-23T20:41:05.882Z,5.29
2019-02-23T20:43:35.153Z,5.23
2019-02-23T20:46:04.956Z,5.16
2019-02-23T20:48:34.333Z,5.20
2019-02-23T20:51:03.618Z,5.10
2019-02-23T20:53:32.905Z,5.01
2019-02-23T20:56:02.170Z,5.18
2019-02-23T20:58:32.154Z,5.21
2019-02-23T21:01:01.441Z,5.24
2019-02-23T21:03:31.319Z,5.22
2019-02-23T21:06:00.811Z,5.16
2019-02-23T21:08:30.125Z,4.92
2019-02-23T21:10:59.458Z,4.99
2019-02-23T21:13:28.910Z,4.82
2019-02-23T21:15:59.384Z,4.98
2019-02-23T21:18:28.682Z,4.93
2019-02-23T21:20:58.256Z,4.97
2019-02-23T21:23:28.333Z,5.01
2019-02-23T21:25:57.598Z,4.96
2019-02-23T21:28:27.003Z,5.00
2019-02-23T21:30:56.346Z,4.85
2019-02-23T21:33:26.854Z,4.89
2019-02-23T21:35:56.360Z,4.89
2019-02-23T21:38:26.179Z,4.79
2019-02-23T21:40:55.467Z,4.84
2019-02-23T21:43:24.753Z,4.84
2019-02-23T21:45:54.099Z,4.70
2019-02-23T21:48:23.376Z,4.74
2019-02-23T21:50:52.654Z,4.73
2019-02-23T21:53:22.537Z,4.66
2019-02-23T21:55:51.787Z,4.73
2019-02-23T21:58:21.109Z,4.74
2019-02-23T22:00:53.476Z,4.66
2019-02-23T22:03:22.725Z,4.63
2019-02-23T22:05:52.358Z,4.36
2019-02-23T22:08:24.901Z,4.37
2019-02-23T22:10:54.027Z,4.40
2019-02-23T22:13:23.265Z,4.48
2019-02-23T22:15:52.460Z,4.44
2019-02-23T22:18:21.663Z,4.31
2019-02-23T22:20:50.873Z,4.45
2019-02-23T22:23:20.413Z,4.49
2019-02-23T22:25:49.675Z,4.30
2019-02-23T22:28:19.182Z,4.10
2019-02-23T22:30:48.559Z,4.18
2019-02-23T22:33:17.877Z,4.16
2019-02-23T22:35:47.100Z,4.28
2019-02-23T22:38:16.378Z,4.29
2019-02-23T22:40:45.626Z,4.33
2019-02-23T22:43:14.949Z,4.27
2019-02-23T22:45:44.205Z,4.31
2019-02-23T22:48:13.429Z,4.25
2019-02-23T22:50:42.772Z,3.85
2019-02-23T22:53:11.966Z,3.94
2019-02-23T22:55:41.169Z,3.93
2019-02-23T22:58:10.575Z,3.99
2019-02-23T23:00:57.339Z,4.08
2019-02-23T23:03:26.615Z,4.15
2019-02-23T23:05:58.315Z,3.89
2019-02-23T23:08:27.576Z,3.89
2019-02-23T23:10:56.741Z,4.07
2019-02-23T23:13:26.713Z,3.81
2019-02-23T23:15:56.163Z,3.79
2019-02-23T23:18:26.006Z,3.88
2019-02-23T23:20:55.706Z,3.88
2019-02-23T23:23:25.179Z,3.96
2019-02-23T23:25:54.949Z,3.91
2019-02-23T23:28:24.522Z,3.83
2019-02-23T23:30:53.896Z,3.71
2019-02-23T23:33:23.559Z,3.73
2019-02-23T23:35:52.802Z,3.71
2019-02-23T23:38:22.011Z,3.58
2019-02-23T23:40:51.246Z,3.46
2019-02-23T23:43:20.451Z,3.54
2019-02-23T23:45:49.703Z,3.55
2019-02-23T23:48:18.912Z,3.57
2019-02-23T23:50:48.133Z,3.38
2019-02-23T23:53:17.328Z,3.23
2019-02-23T23:55:46.540Z,3.18
2019-02-23T23:58:15.786Z,3.33
